Time;durP1;ratioP1;P1;durP2;ratioP2;P2;SDS_P1;SDS_P2;PMS_P1;PMS_P2;Temp;Humidity;BMP_temperature;BMP_pressure;BME280_temperature;BME280_humidity;BME280_pressure;Samples;Min_cycle;Max_cycle;Signal;HPM_P1;HPM_P2
2023/11/08 00:02:22;;;;;;;6.00;2.13;;;10.30;73.20;;;;;;5062419;28;20495;-76
2023/11/08 00:04:48;;;;;;;5.22;1.25;;;10.30;73.20;;;;;;5062346;28;20039;-76
2023/11/08 00:07:14;;;;;;;10.43;1.80;;;10.30;73.20;;;;;;5066280;28;20147;-76
2023/11/08 00:09:40;;;;;;;3.22;1.77;;;10.30;73.20;;;;;;5062484;28;20424;-75
2023/11/08 00:12:08;;;;;;;4.60;2.08;;;10.30;73.20;;;;;;5062328;28;20115;-75
2023/11/08 00:14:34;;;;;;;6.43;1.30;;;10.30;73.20;;;;;;5062701;28;20047;-76
2023/11/08 00:17:01;;;;;;;3.20;1.42;;;10.30;73.20;;;;;;5061071;28;20479;-76
2023/11/08 00:19:27;;;;;;;7.32;1.73;;;10.30;73.30;;;;;;5044348;28;20480;-77
2023/11/08 00:21:55;;;;;;;7.20;2.05;;;10.30;73.20;;;;;;5062415;28;20056;-77
2023/11/08 00:24:22;;;;;;;6.40;2.10;;;10.20;73.10;;;;;;5061046;28;20093;-76
2023/11/08 00:26:48;;;;;;;3.50;1.60;;;10.20;73.10;;;;;;5060479;28;20035;-77
2023/11/08 00:29:14;;;;;;;5.40;1.40;;;10.20;73.10;;;;;;5058163;28;20036;-77
2023/11/08 00:31:40;;;;;;;3.25;1.15;;;10.20;73.10;;;;;;5062128;28;20058;-76
2023/11/08 00:34:08;;;;;;;9.63;3.03;;;10.20;73.10;;;;;;5064656;28;20032;-77
2023/11/08 00:36:34;;;;;;;4.57;1.52;;;10.20;73.10;;;;;;5065103;28;20040;-77
2023/11/08 00:39:01;;;;;;;5.90;1.55;;;10.20;73.10;;;;;;5059252;28;20091;-77
2023/11/08 00:41:28;;;;;;;4.15;1.25;;;10.20;73.10;;;;;;5062439;28;20454;-77
2023/11/08 00:43:56;;;;;;;3.60;1.02;;;10.20;73.20;;;;;;5061702;28;20064;-76
2023/11/08 00:46:23;;;;;;;5.15;2.72;;;10.10;72.90;;;;;;5064023;28;20032;-76
2023/11/08 00:48:49;;;;;;;4.82;1.30;;;10.10;73.00;;;;;;5062493;28;20040;-76
2023/11/08 00:51:15;;;;;;;6.63;1.77;;;10.10;73.00;;;;;;5066477;28;20028;-76
2023/11/08 00:53:41;;;;;;;5.47;1.40;;;10.10;73.00;;;;;;5066466;28;20044;-76
2023/11/08 00:56:07;;;;;;;2.97;1.35;;;10.10;73.00;;;;;;5064814;28;20020;-77
2023/11/08 00:58:33;;;;;;;4.20;1.23;;;10.10;73.00;;;;;;5063283;28;20037;-76
2023/11/08 01:00:59;;;;;;;9.15;1.65;;;10.10;73.10;;;;;;5063005;28;20036;-77
2023/11/08 01:03:25;;;;;;;2.50;1.40;;;10.10;73.10;;;;;;5063252;28;20115;-76
2023/11/08 01:05:51;;;;;;;4.50;1.45;;;10.10;73.10;;;;;;5060382;28;20040;-76
2023/11/08 01:08:18;;;;;;;6.03;1.27;;;10.00;73.00;;;;;;5043320;28;20174;-77
2023/11/08 01:10:45;;;;;;;4.45;2.05;;;10.00;73.00;;;;;;5059092;28;20107;-76
2023/11/08 01:13:13;;;;;;;7.30;1.73;;;10.00;73.00;;;;;;5059681;28;20494;-76
2023/11/08 01:15:39;;;;;;;5.53;1.50;;;10.10;73.20;;;;;;5058868;28;20051;-76
2023/11/08 01:18:05;;;;;;;4.80;1.55;;;10.10;73.30;;;;;;5073827;28;20074;-76
2023/11/08 01:20:32;;;;;;;4.38;1.98;;;10.00;73.10;;;;;;5061506;28;20040;-76
2023/11/08 01:22:58;;;;;;;7.68;1.50;;;10.00;73.10;;;;;;5042447;28;20464;-76
2023/11/08 01:25:27;;;;;;;4.47;1.55;;;10.10;73.30;;;;;;5058103;28;20072;-77
2023/11/08 01:27:54;;;;;;;5.03;1.40;;;10.10;73.40;;;;;;5057112;28;20055;-76
2023/11/08 01:30:20;;;;;;;5.97;1.30;;;10.00;73.20;;;;;;5057095;28;20518;-76
2023/11/08 01:32:46;;;;;;;4.47;1.48;;;10.10;73.30;;;;;;5059657;28;20116;-76
2023/11/08 01:35:12;;;;;;;2.55;1.30;;;10.10;73.40;;;;;;5044912;28;20040;-76
2023/11/08 01:37:42;;;;;;;4.00;1.13;;;10.10;73.40;;;;;;5065240;28;20047;-77
2023/11/08 01:40:09;;;;;;;5.60;1.40;;;10.10;73.40;;;;;;5057754;28;20055;-76
2023/11/08 01:42:36;;;;;;;5.03;1.13;;;10.10;73.40;;;;;;5057012;28;20147;-76
2023/11/08 01:45:04;;;;;;;6.18;1.58;;;10.10;73.40;;;;;;5059436;28;20040;-76
2023/11/08 01:47:34;;;;;;;4.20;1.20;;;10.10;73.40;;;;;;5061574;28;20029;-75
2023/11/08 01:50:03;;;;;;;5.05;1.70;;;10.10;73.40;;;;;;5062691;28;20046;-76
2023/11/08 01:52:30;;;;;;;10.93;1.95;;;10.10;73.40;;;;;;5063046;28;20059;-75
2023/11/08 01:54:57;;;;;;;4.22;1.60;;;10.10;73.40;;;;;;5058651;28;20037;-76
2023/11/08 01:57:23;;;;;;;5.03;1.50;;;10.20;73.60;;;;;;5053875;28;20079;-75
2023/11/08 01:59:53;;;;;;;3.42;1.33;;;10.20;73.60;;;;;;5060308;28;20036;-75
2023/11/08 02:02:19;;;;;;;5.70;1.38;;;10.20;73.60;;;;;;5061159;28;20020;-75
2023/11/08 02:04:47;;;;;;;2.65;1.20;;;10.20;73.60;;;;;;5059643;28;20453;-75
2023/11/08 02:07:13;;;;;;;5.10;1.10;;;10.20;73.60;;;;;;5057442;28;20119;-77
2023/11/08 02:09:39;;;;;;;4.20;1.55;;;10.20;73.60;;;;;;5058049;28;20092;-76
2023/11/08 02:12:06;;;;;;;2.88;1.60;;;10.20;73.60;;;;;;5058715;28;20036;-78
2023/11/08 02:14:32;;;;;;;5.95;1.50;;;10.20;73.60;;;;;;5057728;28;20054;-76
2023/11/08 02:16:59;;;;;;;5.32;1.60;;;10.20;73.60;;;;;;5057974;28;20067;-76
2023/11/08 02:19:25;;;;;;;3.85;1.70;;;10.30;73.80;;;;;;5059338;28;20408;-78
2023/11/08 02:21:52;;;;;;;2.55;0.90;;;10.30;73.80;;;;;;5058223;28;20036;-77
2023/11/08 02:24:20;;;;;;;7.05;1.77;;;10.30;73.80;;;;;;5043441;28;20032;-77
2023/11/08 02:26:48;;;;;;;8.00;1.55;;;10.30;73.80;;;;;;5057158;28;20296;-76
2023/11/08 02:29:17;;;;;;;6.72;1.20;;;10.30;73.80;;;;;;5055924;28;20032;-76
2023/11/08 02:31:44;;;;;;;5.53;1.27;;;10.30;73.80;;;;;;5059322;28;20109;-76
2023/11/08 02:34:11;;;;;;;4.55;1.05;;;10.30;73.80;;;;;;5060311;28;20115;-76
2023/11/08 02:36:38;;;;;;;6.35;1.08;;;10.40;74.00;;;;;;5041716;28;20033;-77
2023/11/08 02:39:04;;;;;;;6.20;1.20;;;10.30;73.80;;;;;;5058532;28;20400;-76
2023/11/08 02:41:34;;;;;;;6.55;1.10;;;10.40;74.00;;;;;;5065597;28;20041;-77
2023/11/08 02:44:00;;;;;;;6.32;1.20;;;10.40;74.10;;;;;;5057168;28;20064;-77
2023/11/08 02:46:27;;;;;;;3.72;0.95;;;10.40;74.10;;;;;;5054601;28;20459;-77
2023/11/08 02:48:56;;;;;;;2.95;1.10;;;10.40;74.00;;;;;;5052538;28;20040;-77
2023/11/08 02:51:28;;;;;;;4.60;1.23;;;10.40;74.10;;;;;;5059990;28;20110;-76
2023/11/08 02:53:56;;;;;;;2.88;0.95;;;10.40;74.10;;;;;;5075325;28;20479;-78
2023/11/08 02:56:24;;;;;;;2.33;1.02;;;10.40;74.60;;;;;;5059349;28;20032;-77
2023/11/08 02:58:56;;;;;;;4.00;0.82;;;10.40;74.10;;;;;;5042473;28;20177;-77
2023/11/08 03:01:23;;;;;;;2.88;1.02;;;10.40;74.10;;;;;;5053497;28;20205;-77
2023/11/08 03:03:50;;;;;;;2.42;0.93;;;10.40;74.10;;;;;;5057326;28;20028;-77
2023/11/08 03:06:19;;;;;;;2.78;1.05;;;10.40;74.10;;;;;;5058929;28;20490;-77
2023/11/08 03:08:46;;;;;;;5.18;1.10;;;10.40;74.20;;;;;;5064916;28;20181;-77
2023/11/08 03:11:12;;;;;;;6.68;1.52;;;10.40;74.20;;;;;;5062677;28;20369;-77
2023/11/08 03:13:38;;;;;;;2.67;0.73;;;10.50;74.40;;;;;;5063464;28;20040;-77
2023/11/08 03:16:06;;;;;;;3.58;0.90;;;10.50;74.40;;;;;;5062315;28;20036;-77
2023/11/08 03:18:32;;;;;;;5.45;1.00;;;10.50;74.50;;;;;;5056621;28;20081;-77
2023/11/08 03:20:59;;;;;;;6.35;1.27;;;10.50;74.40;;;;;;5061959;28;20028;-76
2023/11/08 03:23:26;;;;;;;5.63;1.52;;;10.50;74.50;;;;;;5062924;28;20033;-77
2023/11/08 03:25:52;;;;;;;3.17;1.00;;;10.50;74.50;;;;;;5064061;28;20028;-77
2023/11/08 03:28:18;;;;;;;2.15;1.00;;;10.50;74.50;;;;;;5050716;28;20043;-77
2023/11/08 03:30:44;;;;;;;6.57;1.52;;;10.50;74.50;;;;;;5059703;28;20036;-76
2023/11/08 03:33:10;;;;;;;2.40;1.00;;;10.50;74.50;;;;;;5062543;28;20024;-76
2023/11/08 03:35:37;;;;;;;3.63;1.00;;;10.60;74.70;;;;;;5062238;28;20028;-76
2023/11/08 03:38:03;;;;;;;5.63;0.93;;;10.60;74.70;;;;;;5058643;28;20373;-76
2023/11/08 03:40:29;;;;;;;4.15;1.45;;;10.60;74.80;;;;;;5062232;28;20101;-77
2023/11/08 03:42:56;;;;;;;5.93;1.17;;;10.60;74.80;;;;;;5053931;28;20484;-77
2023/11/08 03:45:22;;;;;;;8.23;2.13;;;10.60;74.80;;;;;;5056377;28;20048;-77
2023/11/08 03:47:48;;;;;;;6.25;1.20;;;10.60;74.90;;;;;;5064174;28;20036;-77
2023/11/08 03:50:14;;;;;;;3.22;0.80;;;10.60;75.40;;;;;;5061560;28;20445;-77
2023/11/08 03:52:40;;;;;;;3.70;1.00;;;10.60;74.90;;;;;;5064208;28;20548;-76
2023/11/08 03:55:08;;;;;;;4.50;1.35;;;10.60;74.90;;;;;;5063986;28;20025;-77
2023/11/08 03:57:34;;;;;;;4.78;1.13;;;10.60;74.90;;;;;;5062235;28;20225;-76
2023/11/08 04:00:00;;;;;;;2.78;0.70;;;10.70;75.10;;;;;;5060854;28;20308;-77
2023/11/08 04:02:26;;;;;;;3.33;0.95;;;10.70;75.20;;;;;;5063299;28;20048;-77
2023/11/08 04:04:52;;;;;;;3.60;1.48;;;10.70;75.20;;;;;;5057372;28;20105;-77
2023/11/08 04:07:20;;;;;;;5.82;1.33;;;10.70;75.20;;;;;;5061491;28;20031;-77
2023/11/08 04:09:47;;;;;;;7.10;1.42;;;10.70;75.30;;;;;;5045401;28;20102;-78
2023/11/08 04:12:13;;;;;;;4.53;1.02;;;10.70;75.30;;;;;;5060773;28;20048;-77
2023/11/08 04:14:40;;;;;;;4.20;0.80;;;10.70;75.30;;;;;;5044298;28;20528;-77
2023/11/08 04:17:10;;;;;;;5.40;0.88;;;10.70;75.30;;;;;;5063178;28;20504;-77
2023/11/08 04:19:36;;;;;;;8.45;1.10;;;10.70;75.30;;;;;;5061489;28;20043;-77
2023/11/08 04:22:06;;;;;;;3.58;0.80;;;10.70;75.40;;;;;;5061708;28;20116;-77
2023/11/08 04:24:33;;;;;;;4.22;0.82;;;10.70;75.40;;;;;;5063143;28;20044;-77
2023/11/08 04:26:59;;;;;;;2.33;0.73;;;10.80;75.60;;;;;;5062377;28;20523;-77
2023/11/08 04:29:25;;;;;;;3.67;1.10;;;10.80;75.60;;;;;;5059785;28;20641;-77
2023/11/08 04:31:52;;;;;;;4.60;1.20;;;10.80;75.70;;;;;;5042314;28;20036;-78
2023/11/08 04:34:18;;;;;;;4.88;0.95;;;10.80;75.70;;;;;;5062588;28;20028;-77
2023/11/08 04:36:44;;;;;;;5.75;1.20;;;10.80;75.70;;;;;;5059562;28;20105;-77
2023/11/08 04:39:13;;;;;;;5.25;0.90;;;10.80;75.70;;;;;;5061089;28;20084;-77
2023/11/08 04:41:38;;;;;;;2.53;0.90;;;10.80;75.70;;;;;;5054638;28;20031;-77
2023/11/08 04:44:05;;;;;;;6.43;1.30;;;10.90;75.90;;;;;;5062063;28;20037;-76
2023/11/08 04:46:31;;;;;;;3.15;1.30;;;10.90;75.90;;;;;;5044297;28;20036;-76
2023/11/08 04:48:58;;;;;;;7.20;1.20;;;10.90;76.00;;;;;;5062296;28;20052;-77
2023/11/08 04:51:24;;;;;;;2.90;1.17;;;10.90;76.00;;;;;;5062966;28;20028;-76
2023/11/08 04:53:50;;;;;;;6.40;1.23;;;10.90;76.00;;;;;;5062387;28;20186;-77
2023/11/08 04:56:16;;;;;;;5.28;1.58;;;10.90;76.00;;;;;;5060711;28;20134;-77
2023/11/08 04:58:42;;;;;;;2.30;0.88;;;10.90;76.10;;;;;;5062612;28;20467;-77
2023/11/08 05:01:07;;;;;;;1.65;0.75;;;10.90;76.10;;;;;;5060231;28;20043;-76
2023/11/08 05:03:34;;;;;;;3.40;0.63;;;10.90;76.10;;;;;;5092085;28;20312;-77
2023/11/08 05:06:00;;;;;;;6.20;1.50;;;11.00;76.30;;;;;;5062339;28;20021;-76
2023/11/08 05:08:26;;;;;;;2.70;0.90;;;10.90;76.10;;;;;;5093094;28;20496;-76
2023/11/08 05:10:52;;;;;;;3.47;0.90;;;11.00;76.30;;;;;;5059420;28;20037;-76
2023/11/08 05:13:19;;;;;;;3.25;0.80;;;11.00;76.30;;;;;;5061432;28;20049;-76
2023/11/08 05:15:45;;;;;;;1.95;1.00;;;11.00;76.40;;;;;;5061106;28;20020;-76
2023/11/08 05:18:12;;;;;;;4.43;0.75;;;11.00;76.40;;;;;;5064280;28;20029;-75
2023/11/08 05:20:38;;;;;;;3.20;1.08;;;11.00;76.40;;;;;;5061596;28;20204;-75
2023/11/08 05:23:04;;;;;;;5.57;1.15;;;11.00;76.40;;;;;;5063378;28;20123;-76
2023/11/08 05:25:30;;;;;;;4.88;0.93;;;11.00;76.40;;;;;;5062217;28;20059;-76
2023/11/08 05:27:58;;;;;;;5.10;1.05;;;11.00;76.40;;;;;;5054381;28;20508;-76
2023/11/08 05:30:25;;;;;;;3.67;0.88;;;11.10;76.60;;;;;;5055729;28;20029;-75
2023/11/08 05:32:51;;;;;;;1.45;0.75;;;11.00;76.40;;;;;;5059357;28;20043;-76
2023/11/08 05:35:17;;;;;;;4.57;1.10;;;11.10;76.60;;;;;;5061721;28;20033;-76
2023/11/08 05:37:43;;;;;;;2.45;0.70;;;11.10;76.70;;;;;;5059579;28;20040;-75
2023/11/08 05:40:12;;;;;;;3.17;0.65;;;11.10;76.60;;;;;;5048652;28;20048;-76
2023/11/08 05:42:41;;;;;;;4.10;0.95;;;11.10;76.70;;;;;;5053116;28;20039;-75
2023/11/08 05:45:08;;;;;;;4.43;2.08;;;11.10;76.70;;;;;;5056654;28;20097;-76
2023/11/08 05:47:35;;;;;;;3.78;0.88;;;11.10;76.70;;;;;;5058882;28;20068;-75
2023/11/08 05:50:01;;;;;;;2.58;1.00;;;11.10;76.70;;;;;;5059829;28;20033;-75
2023/11/08 05:52:28;;;;;;;2.65;0.93;;;11.20;76.90;;;;;;5058965;28;20392;-76
2023/11/08 05:54:54;;;;;;;4.57;1.00;;;11.10;76.70;;;;;;5059636;28;20082;-76
2023/11/08 05:57:20;;;;;;;4.25;1.25;;;11.20;76.90;;;;;;5056982;28;20098;-76
2023/11/08 05:59:46;;;;;;;4.30;1.00;;;11.20;76.90;;;;;;5054618;28;20025;-75
2023/11/08 06:02:12;;;;;;;3.80;0.98;;;11.20;77.00;;;;;;5060593;28;20052;-75
2023/11/08 06:04:39;;;;;;;2.70;1.00;;;11.20;77.00;;;;;;5059176;28;20044;-76
2023/11/08 06:07:06;;;;;;;8.73;1.13;;;11.20;77.00;;;;;;5062319;28;20506;-76
2023/11/08 06:09:32;;;;;;;4.50;1.27;;;11.30;77.20;;;;;;5057984;28;20097;-75
2023/11/08 06:11:58;;;;;;;5.20;1.38;;;11.30;77.20;;;;;;5058107;28;20028;-76
2023/11/08 06:14:24;;;;;;;3.45;1.23;;;11.30;77.20;;;;;;5056768;28;20016;-76
2023/11/08 06:16:52;;;;;;;6.80;1.13;;;11.30;77.20;;;;;;5057696;28;20036;-76
2023/11/08 06:19:18;;;;;;;4.80;1.15;;;11.30;77.20;;;;;;5060254;28;20127;-76
2023/11/08 06:21:48;;;;;;;6.75;1.23;;;11.30;77.20;;;;;;5055905;28;20020;-76
2023/11/08 06:24:15;;;;;;;4.75;1.25;;;11.30;77.20;;;;;;5055735;28;20166;-75
2023/11/08 06:26:41;;;;;;;3.88;1.00;;;11.30;77.20;;;;;;5057059;28;20032;-76
2023/11/08 06:29:08;;;;;;;7.32;1.17;;;11.40;77.50;;;;;;5056658;28;20017;-76
2023/11/08 06:31:37;;;;;;;5.90;1.55;;;11.40;77.50;;;;;;5055803;28;20048;-76
2023/11/08 06:34:04;;;;;;;4.07;1.10;;;11.40;77.50;;;;;;5055856;28;20040;-74
2023/11/08 06:36:30;;;;;;;3.63;1.08;;;11.40;77.50;;;;;;5051522;28;20086;-73
2023/11/08 06:38:56;;;;;;;5.38;1.15;;;11.40;77.50;;;;;;5052716;28;20041;-74
2023/11/08 06:41:22;;;;;;;4.32;1.05;;;11.40;77.60;;;;;;5052686;28;20138;-74
2023/11/08 06:43:48;;;;;;;8.55;1.67;;;11.50;77.80;;;;;;5054009;28;20035;-74
2023/11/08 06:46:14;;;;;;;4.00;1.27;;;11.40;77.60;;;;;;5054387;28;20037;-74
2023/11/08 06:48:41;;;;;;;5.57;0.95;;;11.50;77.90;;;;;;5057713;28;20508;-74
2023/11/08 06:51:07;;;;;;;5.47;1.30;;;11.50;77.90;;;;;;5062776;28;20483;-74
2023/11/08 06:53:33;;;;;;;5.22;1.17;;;11.50;78.00;;;;;;5062361;28;20051;-74
2023/11/08 06:55:59;;;;;;;5.35;1.23;;;11.50;78.00;;;;;;5055292;28;20037;-75
2023/11/08 06:58:30;;;;;;;7.53;1.23;;;11.50;78.10;;;;;;5057448;28;20028;-75
2023/11/08 07:00:57;;;;;;;4.00;1.42;;;11.60;78.40;;;;;;5080385;28;20051;-74
2023/11/08 07:03:25;;;;;;;4.30;0.80;;;11.60;78.40;;;;;;5058711;28;20565;-75
2023/11/08 07:05:51;;;;;;;6.45;1.67;;;11.60;78.40;;;;;;5053477;28;20041;-75
2023/11/08 07:08:17;;;;;;;6.93;1.35;;;11.70;78.60;;;;;;5062513;28;20362;-75
2023/11/08 07:10:45;;;;;;;3.47;1.45;;;11.70;78.60;;;;;;5055073;28;20105;-75
2023/11/08 07:13:11;;;;;;;4.40;0.90;;;11.70;78.70;;;;;;5053572;28;20056;-75
2023/11/08 07:15:37;;;;;;;3.20;1.40;;;11.70;78.70;;;;;;5050774;28;20527;-77
2023/11/08 07:18:03;;;;;;;2.70;1.05;;;11.80;78.90;;;;;;5058220;28;20044;-75
2023/11/08 07:20:29;;;;;;;5.05;0.93;;;11.80;78.90;;;;;;5058233;28;20354;-76
2023/11/08 07:22:56;;;;;;;3.15;0.80;;;11.80;78.90;;;;;;5055847;28;20044;-76
2023/11/08 07:25:21;;;;;;;2.53;1.38;;;11.80;79.00;;;;;;5059020;28;20029;-75
2023/11/08 07:27:47;;;;;;;6.18;1.20;;;11.80;79.00;;;;;;5051516;28;20028;-75
2023/11/08 07:30:16;;;;;;;2.50;0.93;;;11.90;79.20;;;;;;5043540;28;20040;-76
2023/11/08 07:32:45;;;;;;;2.75;0.82;;;11.90;79.20;;;;;;5056769;28;20047;-75
2023/11/08 07:35:12;;;;;;;2.22;0.60;;;11.90;79.20;;;;;;5063439;28;20400;-75
2023/11/08 07:37:39;;;;;;;2.63;0.90;;;11.90;79.20;;;;;;5055100;28;20165;-74
2023/11/08 07:40:07;;;;;;;1.88;0.70;;;11.90;79.20;;;;;;5049051;28;20568;-75
2023/11/08 07:42:33;;;;;;;5.97;1.17;;;12.00;79.40;;;;;;5046407;28;20032;-74
2023/11/08 07:44:59;;;;;;;1.67;0.68;;;12.00;79.40;;;;;;5053551;28;20322;-75
2023/11/08 07:47:25;;;;;;;2.58;0.90;;;12.00;79.40;;;;;;5056855;28;20078;-75
2023/11/08 07:49:51;;;;;;;2.25;1.20;;;12.00;79.40;;;;;;5056438;28;20068;-74
2023/11/08 07:52:17;;;;;;;4.68;1.40;;;12.00;79.90;;;;;;5056395;28;20092;-76
2023/11/08 07:54:43;;;;;;;1.98;1.15;;;12.10;79.60;;;;;;5056585;28;20040;-76
2023/11/08 07:57:09;;;;;;;1.17;0.60;;;12.10;79.60;;;;;;5060253;28;20070;-75
2023/11/08 07:59:35;;;;;;;1.58;0.47;;;12.10;79.50;;;;;;5054729;28;20186;-76
2023/11/08 08:02:01;;;;;;;2.13;0.80;;;12.20;79.70;;;;;;5077856;28;20695;-76
2023/11/08 08:04:26;;;;;;;1.80;0.63;;;12.20;79.70;;;;;;5060012;28;20459;-76
2023/11/08 08:06:52;;;;;;;0.60;0.35;;;12.20;79.70;;;;;;5054919;28;20035;-78
2023/11/08 08:09:18;;;;;;;0.82;0.50;;;12.20;79.60;;;;;;5062295;28;20032;-77
2023/11/08 08:11:47;;;;;;;1.02;0.50;;;12.30;79.80;;;;;;5058342;28;20032;-76
2023/11/08 08:14:13;;;;;;;0.70;0.40;;;12.30;79.80;;;;;;5067521;28;20218;-77
2023/11/08 08:16:40;;;;;;;1.02;0.40;;;12.30;79.80;;;;;;5065044;28;20400;-77
2023/11/08 08:19:06;;;;;;;0.98;0.50;;;12.30;79.80;;;;;;5063395;28;20043;-77
2023/11/08 08:21:32;;;;;;;0.82;0.50;;;12.40;79.90;;;;;;5060596;28;20040;-77
2023/11/08 08:23:58;;;;;;;1.15;0.70;;;12.40;79.90;;;;;;5057532;28;20077;-76
2023/11/08 08:26:25;;;;;;;0.93;0.40;;;12.50;80.10;;;;;;5061201;28;20703;-77
2023/11/08 08:28:51;;;;;;;1.25;0.60;;;12.50;80.10;;;;;;5057260;28;20403;-76
2023/11/08 08:31:17;;;;;;;2.33;0.60;;;12.50;80.00;;;;;;5062255;28;20020;-77
2023/11/08 08:33:43;;;;;;;2.55;1.10;;;12.60;80.20;;;;;;5059384;28;20509;-77
2023/11/08 08:36:10;;;;;;;0.73;0.40;;;12.60;80.20;;;;;;5058823;28;20027;-77
2023/11/08 08:38:37;;;;;;;1.70;0.60;;;12.60;80.10;;;;;;5057271;28;20048;-77
2023/11/08 08:41:05;;;;;;;0.80;0.40;;;12.70;80.30;;;;;;5060288;28;20433;-76
2023/11/08 08:43:31;;;;;;;1.80;0.60;;;12.70;80.20;;;;;;5058441;28;20314;-77
2023/11/08 08:45:58;;;;;;;1.52;0.40;;;12.70;80.20;;;;;;5038968;28;20118;-77
2023/11/08 08:48:24;;;;;;;1.20;0.35;;;12.80;80.30;;;;;;5064115;28;20590;-77
2023/11/08 08:50:50;;;;;;;1.10;0.40;;;12.80;80.20;;;;;;5063030;28;20036;-77
2023/11/08 08:53:20;;;;;;;0.60;0.40;;;12.80;80.20;;;;;;5065822;28;20067;-76
2023/11/08 08:55:46;;;;;;;0.73;0.30;;;12.90;80.30;;;;;;5057582;28;20060;-77
2023/11/08 08:58:13;;;;;;;1.65;0.68;;;12.90;80.30;;;;;;5056797;28;20644;-76
2023/11/08 09:00:40;;;;;;;2.58;0.40;;;13.00;80.50;;;;;;5051732;28;20539;-77
2023/11/08 09:03:07;;;;;;;0.57;0.30;;;13.00;80.50;;;;;;5057924;28;20021;-76
2023/11/08 09:05:33;;;;;;;0.82;0.45;;;13.00;80.40;;;;;;5056536;28;20036;-77
2023/11/08 09:08:02;;;;;;;1.35;0.43;;;13.00;80.40;;;;;;5056481;28;20044;-77
2023/11/08 09:10:28;;;;;;;1.02;0.30;;;13.00;80.50;;;;;;5081998;28;20040;-76
2023/11/08 09:12:55;;;;;;;0.45;0.40;;;13.00;80.50;;;;;;5055899;28;20593;-77
2023/11/08 09:15:21;;;;;;;2.83;0.40;;;13.10;80.60;;;;;;5057554;28;20134;-77
2023/11/08 09:17:48;;;;;;;0.40;0.30;;;13.10;80.70;;;;;;5052745;28;20094;-77
2023/11/08 09:20:14;;;;;;;0.60;0.35;;;13.10;80.70;;;;;;5039732;28;20491;-77
2023/11/08 09:22:41;;;;;;;0.95;0.50;;;13.10;80.60;;;;;;5056153;28;20291;-77
2023/11/08 09:25:14;;;;;;;0.60;0.30;;;13.20;80.80;;;;;;5054404;28;20032;-77
2023/11/08 09:27:40;;;;;;;0.20;0.20;;;13.30;80.90;;;;;;5057580;28;20115;-77
2023/11/08 09:30:08;;;;;;;0.73;0.30;;;13.30;80.90;;;;;;5053240;28;20480;-76
2023/11/08 09:32:35;;;;;;;0.50;0.38;;;13.30;80.80;;;;;;5055896;28;20059;-76
2023/11/08 09:35:01;;;;;;;0.25;0.25;;;13.40;81.00;;;;;;5056818;28;20864;-76
2023/11/08 09:37:27;;;;;;;0.60;0.30;;;13.40;81.00;;;;;;5051982;28;20036;-78
2023/11/08 09:39:56;;;;;;;0.40;0.40;;;13.50;81.20;;;;;;5052040;28;20508;-79
2023/11/08 09:42:23;;;;;;;1.30;0.40;;;13.50;81.10;;;;;;5057797;28;20064;-78
2023/11/08 09:44:50;;;;;;;1.40;0.47;;;13.60;81.10;;;;;;5057141;28;20511;-78
2023/11/08 09:47:17;;;;;;;1.77;0.90;;;13.70;81.20;;;;;;5053870;28;20028;-79
2023/11/08 09:49:49;;;;;;;1.02;0.52;;;13.70;81.00;;;;;;5058169;28;20218;-79
2023/11/08 09:52:16;;;;;;;1.25;0.47;;;13.80;81.10;;;;;;5056100;28;20043;-78
2023/11/08 09:54:44;;;;;;;3.15;0.75;;;13.90;81.10;;;;;;5058598;28;20029;-79
2023/11/08 09:57:13;;;;;;;3.08;0.70;;;13.90;81.00;;;;;;5054190;28;20394;-81
2023/11/08 09:59:43;;;;;;;2.00;0.70;;;14.00;81.00;;;;;;5062007;28;20086;-78
2023/11/08 10:02:12;;;;;;;4.00;0.63;;;14.00;80.90;;;;;;5056692;28;20028;-79
2023/11/08 10:04:39;;;;;;;4.82;1.02;;;14.10;81.00;;;;;;5055352;28;20040;-79
2023/11/08 10:07:06;;;;;;;1.63;0.95;;;14.10;80.80;;;;;;5052162;28;20127;-78
2023/11/08 10:09:34;;;;;;;2.72;0.68;;;14.20;80.90;;;;;;5056197;28;20667;-78
2023/11/08 10:12:01;;;;;;;4.63;1.00;;;14.20;80.80;;;;;;5055586;28;20232;-78
2023/11/08 10:14:32;;;;;;;5.07;1.35;;;14.30;80.80;;;;;;5054311;28;20115;-78
2023/11/08 10:17:01;;;;;;;5.60;0.95;;;14.30;80.70;;;;;;5089570;28;20551;-78
2023/11/08 10:19:45;;;;;;;3.55;1.00;;;14.40;80.70;;;;;;5059725;28;20079;-78
2023/11/08 10:22:21;;;;;;;4.50;0.98;;;14.50;80.70;;;;;;5053345;28;20035;-78
2023/11/08 10:25:00;;;;;;;5.03;1.08;;;14.50;80.40;;;;;;5055490;28;20040;-79
2023/11/08 10:27:28;;;;;;;10.07;1.88;;;14.60;80.40;;;;;;5049543;28;20062;-78
2023/11/08 10:30:21;;;;;;;5.22;1.15;;;14.60;80.20;;;;;;5052895;28;20137;-80
2023/11/08 10:32:48;;;;;;;6.72;2.03;;;14.70;80.40;;;;;;5058851;28;20120;-78
2023/11/08 10:35:19;;;;;;;6.72;1.95;;;14.70;80.20;;;;;;5056058;28;20032;-79
2023/11/08 10:37:48;;;;;;;6.80;2.17;;;14.70;80.10;;;;;;5047525;28;20053;-78
2023/11/08 10:40:15;;;;;;;5.25;1.73;;;14.70;80.00;;;;;;5056744;28;20055;-79
2023/11/08 10:42:53;;;;;;;7.30;1.73;;;14.80;80.10;;;;;;5050691;28;20067;-79
2023/11/08 10:45:20;;;;;;;9.52;1.75;;;14.70;79.90;;;;;;5050529;28;20543;-78
2023/11/08 10:47:47;;;;;;;8.20;2.55;;;14.80;80.10;;;;;;5057576;28;20071;-79
2023/11/08 10:50:18;;;;;;;5.15;1.73;;;14.90;80.20;;;;;;5055181;28;20081;-79
2023/11/08 10:52:48;;;;;;;7.65;2.10;;;14.90;80.00;;;;;;5088395;28;20082;-79
2023/11/08 10:55:15;;;;;;;4.32;1.40;;;14.90;79.90;;;;;;5051947;28;20036;-78
2023/11/08 10:57:51;;;;;;;3.38;1.23;;;15.00;80.00;;;;;;5056187;28;20431;-78
2023/11/08 11:00:20;;;;;;;4.18;1.30;;;15.00;79.80;;;;;;5053210;28;20048;-78
2023/11/08 11:02:54;;;;;;;4.47;0.90;;;15.10;79.80;;;;;;5054363;28;20119;-79
2023/11/08 11:05:22;;;;;;;4.53;1.10;;;15.10;79.60;;;;;;5055427;28;20433;-79
2023/11/08 11:07:48;;;;;;;4.30;1.65;;;15.10;79.50;;;;;;5054405;28;20511;-79
2023/11/08 11:10:18;;;;;;;2.53;0.80;;;15.20;79.60;;;;;;5054854;28;20063;-79
2023/11/08 11:13:09;;;;;;;4.03;0.90;;;15.30;79.60;;;;;;5054967;28;20218;-78
2023/11/08 11:15:38;;;;;;;3.42;1.00;;;15.30;79.40;;;;;;5053767;28;20059;-78
2023/11/08 11:18:11;;;;;;;4.72;0.98;;;15.30;79.20;;;;;;5055608;28;20040;-78
2023/11/08 11:20:47;;;;;;;4.85;1.75;;;15.40;79.30;;;;;;5057235;28;20091;-78
2023/11/08 11:23:36;;;;;;;4.97;1.92;;;15.40;79.20;;;;;;5055422;28;20052;-78
2023/11/08 11:26:06;;;;;;;2.60;1.20;;;15.40;79.10;;;;;;5053720;28;20044;-78
2023/11/08 11:28:55;;;;;;;3.47;1.20;;;15.50;79.10;;;;;;5057266;28;20032;-78
2023/11/08 11:31:32;;;;;;;3.97;1.38;;;15.60;79.10;;;;;;5064729;28;20486;-78
2023/11/08 11:34:00;;;;;;;6.15;1.40;;;15.60;78.90;;;;;;5062625;28;20079;-77
2023/11/08 11:36:26;;;;;;;5.85;1.30;;;15.70;79.00;;;;;;5056261;28;20048;-78
2023/11/08 11:39:12;;;;;;;2.80;0.85;;;15.70;78.70;;;;;;5060895;28;20262;-78
2023/11/08 11:41:39;;;;;;;4.15;1.25;;;15.80;78.70;;;;;;5056571;28;20118;-78
2023/11/08 11:44:06;;;;;;;3.90;1.30;;;15.80;78.60;;;;;;5053723;28;20044;-77
2023/11/08 11:46:35;;;;;;;6.10;2.35;;;15.90;78.50;;;;;;5056570;28;20041;-78
2023/11/08 11:49:11;;;;;;;4.43;0.82;;;15.90;78.30;;;;;;5061834;28;20024;-79
2023/11/08 11:51:39;;;;;;;4.45;1.25;;;16.00;78.40;;;;;;5052869;28;20732;-79
2023/11/08 11:54:06;;;;;;;4.18;1.17;;;16.00;78.30;;;;;;5059667;28;20479;-79
2023/11/08 11:56:32;;;;;;;6.15;1.88;;;16.00;78.10;;;;;;5058080;28;20044;-78
2023/11/08 11:58:59;;;;;;;5.10;1.13;;;16.10;78.10;;;;;;5039916;28;20044;-79
2023/11/08 12:01:27;;;;;;;5.97;1.42;;;16.10;77.90;;;;;;5070063;28;20438;-79
2023/11/08 12:03:56;;;;;;;5.50;1.27;;;16.20;77.80;;;;;;5058260;28;20139;-78
2023/11/08 12:06:23;;;;;;;10.90;2.90;;;16.10;77.50;;;;;;5059257;28;20431;-79
2023/11/08 12:08:49;;;;;;;12.05;3.22;;;16.10;77.30;;;;;;5059394;28;20086;-78
2023/11/08 12:11:18;;;;;;;11.13;3.00;;;16.20;77.30;;;;;;5053431;28;20115;-78
2023/11/08 12:13:52;;;;;;;13.95;5.10;;;16.20;77.20;;;;;;5060090;28;20036;-78
2023/11/08 12:16:19;;;;;;;14.70;3.50;;;16.30;77.20;;;;;;5053465;28;20678;-77
2023/11/08 12:18:47;;;;;;;9.00;3.17;;;16.30;77.20;;;;;;5068769;28;20054;-77
2023/11/08 12:21:15;;;;;;;10.63;3.22;;;16.30;77.30;;;;;;5057205;28;20028;-77
2023/11/08 12:23:43;;;;;;;11.15;2.28;;;16.40;77.40;;;;;;5060965;28;20050;-77
2023/11/08 12:26:12;;;;;;;9.32;2.28;;;16.50;77.40;;;;;;5044368;28;20417;-77
2023/11/08 12:28:40;;;;;;;7.15;2.67;;;16.70;77.50;;;;;;5057810;28;20040;-77
2023/11/08 12:31:13;;;;;;;7.82;2.38;;;16.80;77.30;;;;;;5058340;28;20462;-77
2023/11/08 12:33:40;;;;;;;9.32;2.70;;;17.00;77.20;;;;;;5058319;28;20093;-77
2023/11/08 12:36:08;;;;;;;7.00;2.33;;;17.20;77.20;;;;;;5057323;28;20601;-78
2023/11/08 12:38:38;;;;;;;8.30;2.75;;;17.30;76.90;;;;;;5053423;28;20125;-77
2023/11/08 12:41:07;;;;;;;14.57;3.47;;;17.40;76.70;;;;;;5054530;28;20488;-77
2023/11/08 12:43:34;;;;;;;4.95;2.05;;;17.60;76.70;;;;;;5048508;28;20090;-77
2023/11/08 12:46:09;;;;;;;7.90;2.15;;;17.70;76.60;;;;;;5089327;28;20040;-77
2023/11/08 12:48:37;;;;;;;6.47;2.67;;;17.80;76.40;;;;;;5058804;28;20564;-77